createdAt,value
2019-05-02T00:00:30.902Z,0.00
2019-05-02T00:01:30.994Z,0.00
2019-05-02T00:02:31.103Z,0.00
2019-05-02T00:03:31.193Z,0.00
2019-05-02T00:04:31.292Z,0.00
2019-05-02T00:05:32.123Z,0.00
2019-05-02T00:06:31.462Z,0.00
2019-05-02T00:07:31.557Z,0.00
2019-05-02T00:08:33.201Z,0.00
2019-05-02T00:09:33.548Z,0.00
2019-05-02T00:10:31.826Z,0.00
2019-05-02T00:11:31.917Z,0.00
2019-05-02T00:12:32.006Z,0.00
2019-05-02T00:13:32.098Z,0.00
2019-05-02T00:14:32.189Z,0.00
2019-05-02T00:15:33.026Z,0.00
2019-05-02T00:16:32.373Z,0.00
2019-05-02T00:17:32.463Z,0.00
2019-05-02T00:18:37.247Z,0.00
2019-05-02T00:19:32.647Z,0.00
2019-05-02T00:20:32.735Z,0.00
2019-05-02T00:21:37.390Z,0.00
2019-05-02T00:22:32.928Z,0.00
2019-05-02T00:23:33.019Z,0.00
2019-05-02T00:24:33.868Z,0.00
2019-05-02T00:25:33.204Z,0.00
2019-05-02T00:26:33.293Z,0.00
2019-05-02T00:27:37.806Z,0.00
2019-05-02T00:28:33.473Z,0.00
2019-05-02T00:29:33.561Z,0.00
2019-05-02T00:30:34.613Z,0.00
2019-05-02T00:31:33.749Z,0.00
2019-05-02T00:32:33.836Z,0.00
2019-05-02T00:33:34.772Z,0.00
2019-05-02T00:34:34.026Z,0.00
2019-05-02T00:35:34.112Z,0.00
2019-05-02T00:36:34.202Z,0.00
2019-05-02T00:37:34.291Z,0.00
2019-05-02T00:38:38.500Z,0.00
2019-05-02T00:39:34.474Z,0.00
2019-05-02T00:40:34.585Z,0.00
2019-05-02T00:41:38.420Z,0.00
2019-05-02T00:42:34.756Z,0.00
2019-05-02T00:43:36.371Z,0.00
2019-05-02T00:44:34.935Z,0.00
2019-05-02T00:45:35.030Z,0.00
2019-05-02T00:46:36.141Z,0.00
2019-05-02T00:47:35.210Z,0.00
2019-05-02T00:48:35.298Z,0.00
2019-05-02T00:49:35.653Z,0.00
2019-05-02T00:50:35.479Z,0.00
2019-05-02T00:51:35.570Z,0.00
2019-05-02T00:52:36.646Z,0.00
2019-05-02T00:53:35.753Z,0.00
2019-05-02T00:54:35.841Z,0.00
2019-05-02T00:55:35.931Z,0.00
2019-05-02T00:56:40.254Z,0.00
2019-05-02T00:57:36.114Z,0.00
2019-05-02T00:58:36.204Z,0.00
2019-05-02T00:59:37.771Z,0.00
2019-05-02T01:00:36.395Z,0.00
2019-05-02T01:01:36.482Z,0.00
2019-05-02T01:02:40.546Z,0.00
2019-05-02T01:03:36.667Z,0.00
2019-05-02T01:04:36.755Z,0.00
2019-05-02T01:05:38.485Z,0.00
2019-05-02T01:06:36.935Z,0.00
2019-05-02T01:07:37.029Z,0.00
2019-05-02T01:08:37.118Z,0.00
2019-05-02T01:09:37.211Z,0.00
2019-05-02T01:10:37.301Z,0.00
2019-05-02T01:11:37.394Z,0.00
2019-05-02T01:12:40.058Z,0.00
2019-05-02T01:13:37.570Z,0.00
2019-05-02T01:14:37.663Z,0.00
2019-05-02T01:15:39.019Z,0.00
2019-05-02T01:16:37.844Z,0.00
2019-05-02T01:17:37.934Z,0.00
2019-05-02T01:18:41.428Z,0.00
2019-05-02T01:19:38.128Z,0.00
2019-05-02T01:20:38.219Z,0.00
2019-05-02T01:21:38.901Z,0.00
2019-05-02T01:22:38.397Z,0.00
2019-05-02T01:23:38.489Z,0.00
2019-05-02T01:24:39.935Z,0.00
2019-05-02T01:25:38.668Z,0.00
2019-05-02T01:26:38.758Z,0.00
2019-05-02T01:27:41.197Z,0.00
2019-05-02T01:28:38.933Z,0.00
2019-05-02T01:29:39.030Z,0.00
2019-05-02T01:30:42.358Z,0.00
2019-05-02T01:31:39.192Z,0.00
2019-05-02T01:32:39.281Z,0.00
2019-05-02T01:33:41.697Z,0.00
2019-05-02T01:34:39.467Z,0.00
2019-05-02T01:35:39.557Z,0.00
2019-05-02T01:36:41.060Z,0.00
2019-05-02T01:37:39.737Z,0.00
2019-05-02T01:38:39.831Z,0.00
2019-05-02T01:39:42.719Z,0.00
2019-05-02T01:40:40.009Z,0.00
2019-05-02T01:41:40.099Z,0.00
2019-05-02T01:42:44.229Z,0.00
2019-05-02T01:43:40.278Z,0.00
2019-05-02T01:44:40.369Z,0.00
2019-05-02T01:45:41.873Z,0.00
2019-05-02T01:46:40.565Z,0.00
2019-05-02T01:47:40.643Z,0.00
2019-05-02T01:48:45.740Z,0.00
2019-05-02T01:49:40.835Z,0.00
2019-05-02T01:50:40.918Z,0.00
2019-05-02T01:51:41.828Z,0.00
2019-05-02T01:52:41.098Z,0.00
2019-05-02T01:53:41.189Z,0.00
2019-05-02T01:54:45.841Z,0.00
2019-05-02T01:55:41.367Z,0.00
2019-05-02T01:56:41.462Z,0.00
2019-05-02T01:57:44.766Z,0.00
2019-05-02T01:58:41.641Z,0.00
2019-05-02T01:59:41.732Z,0.00
2019-05-02T02:00:44.823Z,0.00
2019-05-02T02:01:41.909Z,0.00
2019-05-02T02:02:42.022Z,0.00
2019-05-02T02:03:45.629Z,0.00
2019-05-02T02:04:42.200Z,0.00
2019-05-02T02:05:42.292Z,0.00
2019-05-02T02:06:43.266Z,0.00
2019-05-02T02:07:42.481Z,0.00
2019-05-02T02:08:42.565Z,0.00
2019-05-02T02:09:44.079Z,0.00
2019-05-02T02:10:43.924Z,0.00
2019-05-02T02:11:42.825Z,0.00
2019-05-02T02:13:02.230Z,0.00
2019-05-02T02:13:43.005Z,0.00
2019-05-02T02:14:43.098Z,0.00
2019-05-02T02:15:43.182Z,0.00
2019-05-02T02:16:43.276Z,0.00
2019-05-02T02:17:46.879Z,0.00
2019-05-02T02:18:43.466Z,0.00
2019-05-02T02:19:43.555Z,0.00
2019-05-02T02:20:45.222Z,0.00
2019-05-02T02:21:43.756Z,0.00
2019-05-02T02:22:43.850Z,0.00
2019-05-02T02:23:49.254Z,0.00
2019-05-02T02:24:44.028Z,0.00
2019-05-02T02:25:44.121Z,0.00
2019-05-02T02:26:48.220Z,0.00
2019-05-02T02:27:44.300Z,0.00
2019-05-02T02:28:44.386Z,0.00
2019-05-02T02:29:45.385Z,0.00
2019-05-02T02:30:44.567Z,0.00
2019-05-02T02:31:46.873Z,0.00
2019-05-02T02:33:00.559Z,0.00
2019-05-02T02:33:47.960Z,0.00
2019-05-02T02:34:45.028Z,0.00
2019-05-02T02:35:50.633Z,0.00
2019-05-02T02:36:45.198Z,0.00
2019-05-02T02:37:52.142Z,0.00
2019-05-02T02:38:45.377Z,0.00
2019-05-02T02:39:48.517Z,0.00
2019-05-02T02:40:45.554Z,0.00
2019-05-02T02:41:52.305Z,0.00
2019-05-02T02:42:45.726Z,0.00
2019-05-02T02:43:45.813Z,0.00
2019-05-02T02:44:45.900Z,0.00
2019-05-02T02:45:51.711Z,0.00
2019-05-02T02:46:46.096Z,0.00
2019-05-02T02:47:46.182Z,0.00
2019-05-02T02:48:46.262Z,0.00
2019-05-02T02:49:46.349Z,0.00
2019-05-02T02:50:46.444Z,0.00
2019-05-02T02:51:46.530Z,0.00
2019-05-02T02:52:47.161Z,0.00
2019-05-02T02:53:46.730Z,0.00
2019-05-02T02:54:46.819Z,0.00
2019-05-02T02:55:46.900Z,0.00
2019-05-02T02:56:46.995Z,0.00
2019-05-02T02:57:47.076Z,0.00
2019-05-02T02:58:48.006Z,0.00
2019-05-02T02:59:47.744Z,0.00
2019-05-02T03:00:49.260Z,0.00
2019-05-02T03:01:47.413Z,0.00
2019-05-02T03:02:48.553Z,0.00
2019-05-02T03:03:47.613Z,0.00
2019-05-02T03:04:47.683Z,0.00
2019-05-02T03:05:47.777Z,0.00
2019-05-02T03:06:47.866Z,0.00
2019-05-02T03:07:47.963Z,0.00
2019-05-02T03:08:49.164Z,0.00
2019-05-02T03:09:48.169Z,0.00
2019-05-02T03:10:48.231Z,0.00
2019-05-02T03:11:48.323Z,0.00
2019-05-02T03:12:48.411Z,0.00
2019-05-02T03:13:52.543Z,0.00
2019-05-02T03:14:49.434Z,0.00
2019-05-02T03:15:48.686Z,0.00
2019-05-02T03:16:49.505Z,0.00
2019-05-02T03:17:48.874Z,0.00
2019-05-02T03:18:48.964Z,0.00
2019-05-02T03:19:54.422Z,0.00
2019-05-02T03:20:49.144Z,0.00
2019-05-02T03:21:54.210Z,0.00
2019-05-02T03:22:49.326Z,0.00
2019-05-02T03:23:49.416Z,0.00
2019-05-02T03:24:49.505Z,0.00
2019-05-02T03:25:51.369Z,0.00
2019-05-02T03:26:55.208Z,0.00
2019-05-02T03:27:49.772Z,0.00
2019-05-02T03:28:57.199Z,0.00
2019-05-02T03:29:49.957Z,0.00
2019-05-02T03:30:50.058Z,0.00
2019-05-02T03:31:50.142Z,0.00
2019-05-02T03:33:02.481Z,0.00
2019-05-02T03:33:59.383Z,0.00
2019-05-02T03:34:53.477Z,0.00
2019-05-02T03:35:50.497Z,0.00
2019-05-02T03:36:50.588Z,0.00
2019-05-02T03:37:51.523Z,0.00
2019-05-02T03:38:50.782Z,0.00
2019-05-02T03:39:57.236Z,0.00
2019-05-02T03:40:50.967Z,0.00
2019-05-02T03:41:55.687Z,0.00
2019-05-02T03:42:51.145Z,0.00
2019-05-02T03:44:09.460Z,0.00
2019-05-02T03:44:56.219Z,0.00
2019-05-02T03:45:51.410Z,0.00
2019-05-02T03:46:54.276Z,0.00
2019-05-02T03:47:51.597Z,0.00
2019-05-02T03:48:51.686Z,0.00
2019-05-02T03:49:52.345Z,0.00
2019-05-02T03:50:51.854Z,0.00
2019-05-02T03:51:55.757Z,0.00
2019-05-02T03:52:52.039Z,0.00
2019-05-02T03:53:52.134Z,0.00
2019-05-02T03:54:52.715Z,5.63
2019-05-02T03:55:52.308Z,5.63
2019-05-02T03:56:53.476Z,5.63
2019-05-02T03:57:52.488Z,5.63
2019-05-02T03:58:55.947Z,5.63
2019-05-02T03:59:52.674Z,5.63
2019-05-02T04:01:00.866Z,5.63
2019-05-02T04:01:52.852Z,5.63
2019-05-02T04:02:59.120Z,5.63
2019-05-02T04:03:53.032Z,11.25
2019-05-02T04:05:00.007Z,11.25
2019-05-02T04:05:53.213Z,11.25
2019-05-02T04:06:54.896Z,11.25
2019-05-02T04:07:53.394Z,11.25
2019-05-02T04:08:59.151Z,11.25
2019-05-02T04:09:53.574Z,11.25
2019-05-02T04:10:59.356Z,11.25
2019-05-02T04:11:53.753Z,16.88
2019-05-02T04:12:58.456Z,16.88
2019-05-02T04:13:53.932Z,16.88
2019-05-02T04:14:56.012Z,16.88
2019-05-02T04:15:54.103Z,16.88
2019-05-02T04:16:55.139Z,16.88
2019-05-02T04:17:54.300Z,22.50
2019-05-02T04:18:57.872Z,22.50
2019-05-02T04:19:54.483Z,22.50
2019-05-02T04:20:54.572Z,22.50
2019-05-02T04:21:54.927Z,22.50
2019-05-02T04:22:54.754Z,22.50
2019-05-02T04:24:07.568Z,22.50
2019-05-02T04:24:56.802Z,22.50
2019-05-02T04:25:55.030Z,22.50
2019-05-02T04:26:56.347Z,28.13
2019-05-02T04:27:55.206Z,28.13
2019-05-02T04:28:55.297Z,28.13
2019-05-02T04:29:55.404Z,28.13
2019-05-02T04:30:55.477Z,28.13
2019-05-02T04:31:55.571Z,33.75
2019-05-02T04:32:56.159Z,33.75
2019-05-02T04:33:55.746Z,33.75
2019-05-02T04:34:57.957Z,33.75
2019-05-02T04:35:59.305Z,33.75
2019-05-02T04:37:00.900Z,33.75
2019-05-02T04:37:59.180Z,33.75
2019-05-02T04:38:59.340Z,33.75
2019-05-02T04:39:59.102Z,33.75
2019-05-02T04:40:59.179Z,39.38
2019-05-02T04:41:58.642Z,39.38
2019-05-02T04:43:05.920Z,39.38
2019-05-02T04:44:01.209Z,39.38
2019-05-02T04:45:13.857Z,39.38
2019-05-02T04:46:00.038Z,45.00
2019-05-02T04:47:02.614Z,45.00
2019-05-02T04:48:00.857Z,45.00
2019-05-02T04:48:58.931Z,45.00
2019-05-02T04:49:58.599Z,45.00
2019-05-02T04:50:59.718Z,45.00
2019-05-02T04:52:05.963Z,50.63
2019-05-02T04:52:59.252Z,50.63
2019-05-02T04:53:58.803Z,50.63
2019-05-02T04:55:08.134Z,50.63
2019-05-02T04:56:04.437Z,50.63
2019-05-02T04:57:01.832Z,50.63
2019-05-02T04:57:58.890Z,50.63
2019-05-02T04:59:01.388Z,50.63
2019-05-02T05:00:06.267Z,56.25
2019-05-02T05:01:01.701Z,56.25
2019-05-02T05:02:01.312Z,56.25
2019-05-02T05:02:58.417Z,56.25
2019-05-02T05:04:03.231Z,61.88
2019-05-02T05:04:58.604Z,61.88
2019-05-02T05:06:06.803Z,61.88
2019-05-02T05:07:01.160Z,67.50
2019-05-02T05:07:58.869Z,67.50
2019-05-02T05:09:04.070Z,67.50
2019-05-02T05:10:03.128Z,73.13
2019-05-02T05:10:59.133Z,73.13
2019-05-02T05:12:02.573Z,78.75
2019-05-02T05:12:59.308Z,78.75
2019-05-02T05:14:00.414Z,78.75
2019-05-02T05:15:00.448Z,84.38
2019-05-02T05:16:03.075Z,84.38
2019-05-02T05:16:59.683Z,90.00
2019-05-02T05:18:04.635Z,90.00
2019-05-02T05:19:00.078Z,90.00
2019-05-02T05:20:00.140Z,90.00
2019-05-02T05:21:00.058Z,95.63
2019-05-02T05:22:04.670Z,90.00
2019-05-02T05:23:00.243Z,95.63
2019-05-02T05:24:01.444Z,101.25
2019-05-02T05:25:00.430Z,101.25
2019-05-02T05:26:03.367Z,101.25
2019-05-02T05:27:00.607Z,101.25
2019-05-02T05:28:05.637Z,106.88
2019-05-02T05:29:00.803Z,101.25
2019-05-02T05:30:08.388Z,101.25
2019-05-02T05:31:00.987Z,101.25
2019-05-02T05:32:09.300Z,101.25
2019-05-02T05:33:01.167Z,101.25
2019-05-02T05:34:01.259Z,101.25
2019-05-02T05:35:03.262Z,101.25
2019-05-02T05:36:01.443Z,101.25
2019-05-02T05:37:03.680Z,101.25
2019-05-02T05:38:01.629Z,101.25
2019-05-02T05:39:02.997Z,101.25
2019-05-02T05:40:01.815Z,106.88
2019-05-02T05:41:02.972Z,112.50
2019-05-02T05:42:01.990Z,112.50
2019-05-02T05:43:10.894Z,112.50
2019-05-02T05:44:02.176Z,118.13
2019-05-02T05:45:03.879Z,118.13
2019-05-02T05:46:10.756Z,118.13
2019-05-02T05:47:02.451Z,118.13
2019-05-02T05:48:02.540Z,112.50
2019-05-02T05:49:02.635Z,112.50
2019-05-02T05:50:02.727Z,118.13
2019-05-02T05:51:02.838Z,123.75
2019-05-02T05:52:03.959Z,118.13
2019-05-02T05:53:03.026Z,123.75
2019-05-02T05:54:03.348Z,129.38
2019-05-02T05:55:04.867Z,135.00
2019-05-02T05:56:03.303Z,135.00
2019-05-02T05:57:03.395Z,146.25
2019-05-02T05:58:12.399Z,151.88
2019-05-02T05:59:03.583Z,163.13
2019-05-02T06:00:08.208Z,191.25
2019-05-02T06:01:06.917Z,174.38
2019-05-02T06:02:05.511Z,168.75
2019-05-02T06:03:12.947Z,163.13
2019-05-02T06:04:03.973Z,168.75
2019-05-02T06:05:04.067Z,168.75
2019-05-02T06:06:04.157Z,168.75
2019-05-02T06:07:04.250Z,168.75
2019-05-02T06:08:04.340Z,163.13
2019-05-02T06:09:04.436Z,168.75
2019-05-02T06:10:07.824Z,168.75
2019-05-02T06:11:04.619Z,168.75
2019-05-02T06:12:04.711Z,168.75
2019-05-02T06:13:05.193Z,174.38
2019-05-02T06:14:04.905Z,168.75
2019-05-02T06:15:04.986Z,174.38
2019-05-02T06:16:05.091Z,185.63
2019-05-02T06:17:05.180Z,185.63
2019-05-02T06:18:06.194Z,191.25
2019-05-02T06:19:05.366Z,196.88
2019-05-02T06:20:05.456Z,196.88
2019-05-02T06:21:08.695Z,202.50
2019-05-02T06:22:05.639Z,202.50
2019-05-02T06:23:05.730Z,208.13
2019-05-02T06:24:05.824Z,219.38
2019-05-02T06:25:08.846Z,225.00
2019-05-02T06:26:08.044Z,225.00
2019-05-02T06:27:06.096Z,236.25
2019-05-02T06:28:06.821Z,236.25
2019-05-02T06:29:06.285Z,241.88
2019-05-02T06:30:06.378Z,236.25
2019-05-02T06:31:07.229Z,247.50
2019-05-02T06:32:06.559Z,253.13
2019-05-02T06:33:06.650Z,258.75
2019-05-02T06:34:08.273Z,258.75
2019-05-02T06:35:06.836Z,258.75
2019-05-02T06:36:06.926Z,264.38
2019-05-02T06:37:08.290Z,270.00
2019-05-02T06:38:07.112Z,281.25
2019-05-02T06:39:07.202Z,286.88
2019-05-02T06:40:08.012Z,292.50
2019-05-02T06:41:07.386Z,286.88
2019-05-02T06:42:07.476Z,303.75
2019-05-02T06:43:09.818Z,309.38
2019-05-02T06:44:10.257Z,309.38
2019-05-02T06:45:07.749Z,309.38
2019-05-02T06:46:16.019Z,309.38
2019-05-02T06:47:07.934Z,331.88
2019-05-02T06:48:08.028Z,315.00
2019-05-02T06:49:08.120Z,298.13
2019-05-02T06:50:08.204Z,286.88
2019-05-02T06:51:11.060Z,315.00
2019-05-02T06:52:08.383Z,343.13
2019-05-02T06:53:09.644Z,309.38
2019-05-02T06:54:08.568Z,303.75
2019-05-02T06:55:08.659Z,337.50
2019-05-02T06:56:12.702Z,371.25
2019-05-02T06:57:08.847Z,376.88
2019-05-02T06:58:08.936Z,382.50
2019-05-02T06:59:13.055Z,388.13
2019-05-02T07:00:09.124Z,388.13
2019-05-02T07:01:09.206Z,382.50
2019-05-02T07:02:09.306Z,382.50
2019-05-02T07:03:10.102Z,393.75
2019-05-02T07:04:09.493Z,421.88
2019-05-02T07:05:09.586Z,444.38
2019-05-02T07:06:09.678Z,461.25
2019-05-02T07:07:12.909Z,478.13
2019-05-02T07:08:12.273Z,495.00
2019-05-02T07:09:10.056Z,517.50
2019-05-02T07:10:10.074Z,534.38
2019-05-02T07:11:10.165Z,540.00
2019-05-02T07:12:14.582Z,517.50
2019-05-02T07:13:11.443Z,500.63
2019-05-02T07:14:13.698Z,511.88
2019-05-02T07:15:10.607Z,511.88
2019-05-02T07:16:15.515Z,495.00
2019-05-02T07:17:10.727Z,483.75
2019-05-02T07:18:12.227Z,489.38
2019-05-02T07:19:10.913Z,483.75
2019-05-02T07:20:11.016Z,483.75
2019-05-02T07:21:12.108Z,483.75
2019-05-02T07:22:11.198Z,478.13
2019-05-02T07:23:16.056Z,472.50
2019-05-02T07:24:11.385Z,478.13
2019-05-02T07:25:11.476Z,478.13
2019-05-02T07:26:15.523Z,483.75
2019-05-02T07:27:11.658Z,483.75
2019-05-02T07:28:11.749Z,478.13
2019-05-02T07:29:11.844Z,472.50
2019-05-02T07:30:11.937Z,466.88
2019-05-02T07:31:13.808Z,466.88
2019-05-02T07:32:12.121Z,466.88
2019-05-02T07:33:12.215Z,461.25
2019-05-02T07:34:13.044Z,450.00
2019-05-02T07:35:12.397Z,455.63
2019-05-02T07:36:12.490Z,455.63
2019-05-02T07:37:13.984Z,450.00
2019-05-02T07:38:12.681Z,455.63
2019-05-02T07:39:12.775Z,455.63
2019-05-02T07:40:16.833Z,455.63
2019-05-02T07:41:12.957Z,461.25
2019-05-02T07:42:13.051Z,444.38
2019-05-02T07:43:20.832Z,444.38
2019-05-02T07:44:13.237Z,438.75
2019-05-02T07:45:13.330Z,433.13
2019-05-02T07:46:16.176Z,444.38
2019-05-02T07:47:13.523Z,438.75
2019-05-02T07:48:17.879Z,444.38
2019-05-02T07:49:13.707Z,444.38
2019-05-02T07:50:13.799Z,444.38
2019-05-02T07:51:17.228Z,444.38
2019-05-02T07:52:13.987Z,444.38
2019-05-02T07:53:14.460Z,438.75
2019-05-02T07:54:14.175Z,438.75
2019-05-02T07:55:14.267Z,433.13
2019-05-02T07:56:17.629Z,438.75
2019-05-02T07:57:14.457Z,433.13
2019-05-02T07:58:14.551Z,433.13
2019-05-02T07:59:14.659Z,433.13
2019-05-02T08:00:14.739Z,438.75
2019-05-02T08:01:15.330Z,433.13
2019-05-02T08:02:14.927Z,438.75
2019-05-02T08:03:15.019Z,427.50
2019-05-02T08:04:15.120Z,433.13
2019-05-02T08:05:20.954Z,433.13
2019-05-02T08:06:15.299Z,433.13
2019-05-02T08:07:16.394Z,438.75
2019-05-02T08:08:15.506Z,438.75
2019-05-02T08:09:15.583Z,444.38
2019-05-02T08:10:16.285Z,433.13
2019-05-02T08:11:15.771Z,427.50
2019-05-02T08:12:15.866Z,433.13
2019-05-02T08:13:17.446Z,433.13
2019-05-02T08:14:16.055Z,433.13
2019-05-02T08:15:16.147Z,438.75
2019-05-02T08:16:16.240Z,444.38
2019-05-02T08:17:18.969Z,433.13
2019-05-02T08:18:16.434Z,433.13
2019-05-02T08:19:16.525Z,438.75
2019-05-02T08:20:19.097Z,444.38
2019-05-02T08:21:16.715Z,455.63
2019-05-02T08:22:16.809Z,466.88
2019-05-02T08:23:20.403Z,472.50
2019-05-02T08:24:17.000Z,466.88
2019-05-02T08:25:17.094Z,472.50
2019-05-02T08:26:21.585Z,472.50
2019-05-02T08:27:17.286Z,461.25
2019-05-02T08:28:17.895Z,455.63
2019-05-02T08:29:17.472Z,450.00
2019-05-02T08:30:17.568Z,438.75
2019-05-02T08:31:18.968Z,444.38
2019-05-02T08:32:17.754Z,466.88
2019-05-02T08:33:17.858Z,472.50
2019-05-02T08:34:17.951Z,427.50
2019-05-02T08:35:27.871Z,416.25
2019-05-02T08:36:18.173Z,455.63
2019-05-02T08:37:18.267Z,421.88
2019-05-02T08:38:19.054Z,438.75
2019-05-02T08:39:18.457Z,489.38
2019-05-02T08:40:18.551Z,466.88
2019-05-02T08:41:19.950Z,393.75
2019-05-02T08:42:18.746Z,388.13
2019-05-02T08:43:18.834Z,360.00
2019-05-02T08:44:18.931Z,343.13
2019-05-02T08:45:19.028Z,343.13
2019-05-02T08:46:19.147Z,331.88
2019-05-02T08:47:19.588Z,343.13
2019-05-02T08:48:19.318Z,337.50
2019-05-02T08:49:20.098Z,320.63
2019-05-02T08:50:19.504Z,326.25
2019-05-02T08:51:19.600Z,405.00
2019-05-02T08:52:19.698Z,365.63
2019-05-02T08:53:20.462Z,444.38
2019-05-02T08:54:19.885Z,427.50
2019-05-02T08:55:19.983Z,360.00
2019-05-02T08:56:21.460Z,348.75
2019-05-02T08:57:20.174Z,427.50
2019-05-02T08:58:20.269Z,466.88
2019-05-02T08:59:24.490Z,410.63
2019-05-02T09:00:20.463Z,388.13
2019-05-02T09:01:20.555Z,461.25
2019-05-02T09:02:21.213Z,461.25
2019-05-02T09:03:20.747Z,444.38
2019-05-02T09:04:24.214Z,433.13
2019-05-02T09:05:20.935Z,450.00
2019-05-02T09:06:22.641Z,382.50
2019-05-02T09:07:21.204Z,405.00
2019-05-02T09:08:21.219Z,466.88
2019-05-02T09:09:22.725Z,489.38
2019-05-02T09:10:21.409Z,483.75
2019-05-02T09:11:21.509Z,483.75
2019-05-02T09:12:22.925Z,483.75
2019-05-02T09:13:26.485Z,483.75
2019-05-02T09:14:21.795Z,489.38
2019-05-02T09:15:22.389Z,489.38
2019-05-02T09:16:28.949Z,483.75
2019-05-02T09:17:33.074Z,472.50
2019-05-02T09:18:24.021Z,478.13
2019-05-02T09:19:26.260Z,483.75
2019-05-02T09:20:23.693Z,495.00
2019-05-02T09:21:26.635Z,495.00
2019-05-02T09:22:22.570Z,500.63
2019-05-02T09:23:22.879Z,500.63
2019-05-02T09:24:23.968Z,506.25
2019-05-02T09:25:22.858Z,506.25
2019-05-02T09:26:35.516Z,506.25
2019-05-02T09:27:23.053Z,495.00
2019-05-02T09:28:25.371Z,506.25
2019-05-02T09:29:23.245Z,511.88
2019-05-02T09:30:25.892Z,517.50
2019-05-02T09:31:23.440Z,528.75
2019-05-02T09:32:26.320Z,534.38
2019-05-02T09:33:23.633Z,534.38
2019-05-02T09:34:26.672Z,556.88
2019-05-02T09:35:23.827Z,545.63
2019-05-02T09:36:23.923Z,528.75
2019-05-02T09:37:24.021Z,556.88
2019-05-02T09:38:24.120Z,551.25
2019-05-02T09:39:27.358Z,601.88
2019-05-02T09:40:24.312Z,585.00
2019-05-02T09:41:26.922Z,545.63
2019-05-02T09:42:24.509Z,523.13
2019-05-02T09:43:24.604Z,545.63
2019-05-02T09:44:24.700Z,579.38
2019-05-02T09:45:27.895Z,517.50
2019-05-02T09:46:24.897Z,517.50
2019-05-02T09:47:27.213Z,523.13
2019-05-02T09:48:26.762Z,528.75
2019-05-02T09:49:25.186Z,540.00
2019-05-02T09:50:29.970Z,540.00
2019-05-02T09:51:25.381Z,562.50
2019-05-02T09:52:25.478Z,562.50
2019-05-02T09:53:25.792Z,573.75
2019-05-02T09:54:25.672Z,573.75
2019-05-02T09:55:25.773Z,618.75
2019-05-02T09:56:25.867Z,613.13
2019-05-02T09:57:25.963Z,585.00
2019-05-02T09:58:26.057Z,568.13
2019-05-02T09:59:30.103Z,556.88
2019-05-02T10:00:26.782Z,545.63
2019-05-02T10:01:26.350Z,528.75
2019-05-02T10:02:26.455Z,523.13
2019-05-02T10:03:26.552Z,517.50
2019-05-02T10:04:26.658Z,523.13
2019-05-02T10:05:26.752Z,528.75
2019-05-02T10:06:26.844Z,534.38
2019-05-02T10:07:26.941Z,556.88
2019-05-02T10:08:27.039Z,540.00
2019-05-02T10:09:27.354Z,551.25
2019-05-02T10:10:27.239Z,534.38
2019-05-02T10:11:27.338Z,528.75
2019-05-02T10:12:27.431Z,523.13
2019-05-02T10:13:27.529Z,517.50
2019-05-02T10:14:27.627Z,511.88
2019-05-02T10:15:27.725Z,523.13
2019-05-02T10:16:27.832Z,506.25
2019-05-02T10:17:27.927Z,511.88
2019-05-02T10:18:30.226Z,517.50
2019-05-02T10:19:28.125Z,523.13
2019-05-02T10:20:34.010Z,534.38
2019-05-02T10:21:28.309Z,545.63
2019-05-02T10:22:32.285Z,562.50
2019-05-02T10:23:28.510Z,568.13
2019-05-02T10:24:28.607Z,579.38
2019-05-02T10:25:30.751Z,590.63
2019-05-02T10:26:28.802Z,590.63
2019-05-02T10:27:28.899Z,585.00
2019-05-02T10:28:29.003Z,585.00
2019-05-02T10:29:29.927Z,585.00
2019-05-02T10:30:29.195Z,590.63
2019-05-02T10:31:35.697Z,590.63
2019-05-02T10:32:29.391Z,585.00
2019-05-02T10:33:33.560Z,585.00
2019-05-02T10:34:29.591Z,585.00
2019-05-02T10:35:37.507Z,590.63
2019-05-02T10:36:29.788Z,596.25
2019-05-02T10:37:32.424Z,585.00
2019-05-02T10:38:32.343Z,579.38
2019-05-02T10:39:34.025Z,573.75
2019-05-02T10:40:32.168Z,562.50
2019-05-02T10:41:31.737Z,551.25
2019-05-02T10:42:32.433Z,556.88
2019-05-02T10:43:30.478Z,556.88
2019-05-02T10:44:32.698Z,562.50
2019-05-02T10:45:32.072Z,568.13
2019-05-02T10:46:33.495Z,573.75
2019-05-02T10:47:32.293Z,579.38
2019-05-02T10:48:33.010Z,590.63
2019-05-02T10:49:32.084Z,590.63
2019-05-02T10:50:32.861Z,568.13
2019-05-02T10:51:31.670Z,585.00
2019-05-02T10:52:34.145Z,613.13
2019-05-02T10:53:32.209Z,624.38
2019-05-02T10:54:33.664Z,607.50
2019-05-02T10:55:33.205Z,590.63
2019-05-02T10:56:32.393Z,579.38
2019-05-02T10:57:32.619Z,568.13
2019-05-02T10:58:35.650Z,556.88
2019-05-02T10:59:32.803Z,545.63
2019-05-02T11:00:32.572Z,540.00
2019-05-02T11:01:32.366Z,534.38
2019-05-02T11:02:32.816Z,528.75
2019-05-02T11:03:32.447Z,528.75
2019-05-02T11:04:32.544Z,534.38
2019-05-02T11:05:32.641Z,540.00
2019-05-02T11:06:37.036Z,540.00
2019-05-02T11:07:32.839Z,545.63
2019-05-02T11:08:36.635Z,545.63
2019-05-02T11:09:33.036Z,551.25
2019-05-02T11:10:33.133Z,545.63
2019-05-02T11:11:33.237Z,545.63
2019-05-02T11:12:43.441Z,540.00
2019-05-02T11:13:33.426Z,534.38
2019-05-02T11:14:33.524Z,528.75
2019-05-02T11:15:33.625Z,540.00
2019-05-02T11:16:33.727Z,545.63
2019-05-02T11:17:36.195Z,506.25
2019-05-02T11:18:42.372Z,511.88
2019-05-02T11:19:34.018Z,523.13
2019-05-02T11:20:34.122Z,517.50
2019-05-02T11:21:34.214Z,517.50
2019-05-02T11:22:34.310Z,534.38
2019-05-02T11:23:34.448Z,545.63
2019-05-02T11:24:34.506Z,585.00
2019-05-02T11:25:34.604Z,528.75
2019-05-02T11:26:34.703Z,528.75
2019-05-02T11:27:34.800Z,534.38
2019-05-02T11:28:34.899Z,551.25
2019-05-02T11:29:34.995Z,562.50
2019-05-02T11:30:35.095Z,562.50
2019-05-02T11:31:35.191Z,568.13
2019-05-02T11:32:35.287Z,568.13
2019-05-02T11:33:35.387Z,573.75
2019-05-02T11:34:35.488Z,568.13
2019-05-02T11:35:35.583Z,573.75
2019-05-02T11:36:35.679Z,590.63
2019-05-02T11:37:35.780Z,601.88
2019-05-02T11:38:36.207Z,596.25
2019-05-02T11:39:43.795Z,585.00
2019-05-02T11:40:36.075Z,596.25
2019-05-02T11:41:36.171Z,585.00
2019-05-02T11:42:36.267Z,680.63
2019-05-02T11:43:37.144Z,618.75
2019-05-02T11:44:36.463Z,658.13
2019-05-02T11:45:36.565Z,601.88
2019-05-02T11:46:37.545Z,618.75
2019-05-02T11:47:36.759Z,596.25
2019-05-02T11:48:36.854Z,551.25
2019-05-02T11:49:36.955Z,562.50
2019-05-02T11:50:37.054Z,517.50
2019-05-02T11:51:37.150Z,523.13
2019-05-02T11:52:37.528Z,523.13
2019-05-02T11:53:37.349Z,528.75
2019-05-02T11:54:39.186Z,528.75
2019-05-02T11:55:37.548Z,528.75
2019-05-02T11:56:42.950Z,523.13
2019-05-02T11:57:37.745Z,523.13
2019-05-02T11:58:40.796Z,495.00
2019-05-02T11:59:37.939Z,478.13
2019-05-02T12:00:39.727Z,354.38
2019-05-02T12:01:39.735Z,450.00
2019-05-02T12:02:38.236Z,489.38
2019-05-02T12:03:38.333Z,495.00
2019-05-02T12:04:38.432Z,405.00
2019-05-02T12:05:39.404Z,433.13
2019-05-02T12:06:38.633Z,427.50
2019-05-02T12:07:38.731Z,382.50
2019-05-02T12:08:39.429Z,472.50
2019-05-02T12:09:38.926Z,472.50
2019-05-02T12:10:39.025Z,399.38
2019-05-02T12:11:39.122Z,399.38
2019-05-02T12:12:39.225Z,405.00
2019-05-02T12:13:39.373Z,405.00
2019-05-02T12:14:39.422Z,399.38
2019-05-02T12:15:42.146Z,416.25
2019-05-02T12:16:39.618Z,399.38
2019-05-02T12:17:39.715Z,388.13
2019-05-02T12:18:41.810Z,388.13
2019-05-02T12:19:39.910Z,421.88
2019-05-02T12:20:42.327Z,528.75
2019-05-02T12:21:41.894Z,461.25
2019-05-02T12:22:41.942Z,455.63
2019-05-02T12:23:41.790Z,517.50
2019-05-02T12:24:41.046Z,511.88
2019-05-02T12:25:42.158Z,500.63
2019-05-02T12:26:41.887Z,483.75
2019-05-02T12:27:42.503Z,376.88
2019-05-02T12:28:42.778Z,461.25
2019-05-02T12:29:42.367Z,478.13
2019-05-02T12:30:41.880Z,478.13
2019-05-02T12:31:42.692Z,478.13
2019-05-02T12:32:42.782Z,478.13
2019-05-02T12:33:42.659Z,343.13
2019-05-02T12:34:42.035Z,348.75
2019-05-02T12:35:43.256Z,365.63
2019-05-02T12:36:42.724Z,444.38
2019-05-02T12:37:42.413Z,472.50
2019-05-02T12:38:42.106Z,444.38
2019-05-02T12:39:42.528Z,438.75
2019-05-02T12:40:42.299Z,438.75
2019-05-02T12:41:42.549Z,438.75
2019-05-02T12:42:42.181Z,371.25
2019-05-02T12:43:42.283Z,337.50
2019-05-02T12:44:42.692Z,331.88
2019-05-02T12:45:42.478Z,337.50
2019-05-02T12:46:42.579Z,348.75
2019-05-02T12:47:42.934Z,399.38